createdAt,value
2022-11-05T05:16:48.366Z,82.19
2022-11-05T05:19:15.800Z,82.26
2022-11-05T05:21:42.330Z,81.88
2022-11-05T05:24:14.886Z,81.49
2022-11-05T05:26:44.210Z,80.45
2022-11-05T05:29:11.287Z,79.71
2022-11-05T05:31:38.083Z,80.32
2022-11-05T05:34:05.466Z,80.70
2022-11-05T05:36:32.043Z,79.82
2022-11-05T05:38:58.504Z,79.59
2022-11-05T05:41:25.190Z,80.04
2022-11-05T05:43:51.644Z,80.55
2022-11-05T05:46:19.397Z,81.49
2022-11-05T05:48:50.439Z,81.69
2022-11-05T05:51:22.020Z,81.69
2022-11-05T05:53:48.488Z,82.07
2022-11-05T05:56:19.027Z,81.78
2022-11-05T05:58:45.499Z,82.51
2022-11-05T06:01:18.675Z,82.42
2022-11-05T06:03:46.185Z,82.23
2022-11-05T06:06:14.140Z,82.08
2022-11-05T06:08:41.401Z,82.85
2022-11-05T06:11:08.964Z,81.80
2022-11-05T06:13:36.308Z,82.05
2022-11-05T06:16:08.044Z,82.14
2022-11-05T06:18:35.228Z,82.49
2022-11-05T06:21:06.724Z,82.38
2022-11-05T06:23:35.325Z,83.09
2022-11-05T06:26:03.983Z,83.14
2022-11-05T06:28:31.177Z,83.37
2022-11-05T06:30:57.922Z,83.24
2022-11-05T06:33:24.416Z,82.47
2022-11-05T06:35:51.128Z,82.50
2022-11-05T06:38:17.658Z,81.94
2022-11-05T06:40:44.133Z,81.82
2022-11-05T06:43:10.973Z,83.03
2022-11-05T06:45:37.632Z,82.72
2022-11-05T06:48:04.435Z,82.83
2022-11-05T06:50:30.925Z,82.60
2022-11-05T06:53:01.854Z,82.12
2022-11-05T06:55:29.897Z,81.37
2022-11-05T06:57:57.197Z,81.36
2022-11-05T07:00:24.255Z,81.07
2022-11-05T07:02:50.819Z,80.23
2022-11-05T07:05:17.306Z,81.26
2022-11-05T07:07:45.332Z,80.42
2022-11-05T07:10:15.275Z,79.51
2022-11-05T07:12:41.944Z,79.27
2022-11-05T07:15:09.896Z,78.42
2022-11-05T07:17:36.447Z,78.41
2022-11-05T07:20:03.927Z,78.43
2022-11-05T07:22:30.389Z,79.18
2022-11-05T07:24:56.852Z,77.96
2022-11-05T07:27:23.375Z,78.34
2022-11-05T07:29:49.799Z,78.37
2022-11-05T07:32:16.208Z,77.43
2022-11-05T07:34:42.710Z,77.08
2022-11-05T07:37:09.151Z,76.39
2022-11-05T07:39:35.652Z,76.22
2022-11-05T07:42:02.238Z,76.16
2022-11-05T07:44:32.969Z,76.10
2022-11-05T07:46:59.397Z,76.10
2022-11-05T07:49:52.784Z,76.33
2022-11-05T07:52:19.192Z,74.71
2022-11-05T07:54:45.585Z,74.83
2022-11-05T07:57:12.009Z,74.96
2022-11-05T07:59:38.432Z,75.39
2022-11-05T08:02:05.271Z,75.04
2022-11-05T08:04:31.855Z,74.82
2022-11-05T08:06:58.312Z,75.11
2022-11-05T08:09:24.739Z,73.89
2022-11-05T08:11:53.023Z,74.21
2022-11-05T08:14:19.711Z,73.08
2022-11-05T08:16:46.321Z,73.17
2022-11-05T08:19:12.690Z,71.10
2022-11-05T08:21:39.201Z,71.57
2022-11-05T08:24:05.871Z,70.74
2022-11-05T08:26:32.319Z,70.06
2022-11-05T08:29:00.190Z,70.35
2022-11-05T08:31:27.661Z,70.29
2022-11-05T08:34:21.716Z,69.83
2022-11-05T08:36:48.206Z,69.19
2022-11-05T08:39:17.037Z,69.25
2022-11-05T08:41:43.674Z,68.70
2022-11-05T08:44:10.194Z,68.60
2022-11-05T08:46:41.404Z,68.89
2022-11-05T08:49:08.273Z,68.11
2022-11-05T08:51:36.757Z,67.79
2022-11-05T08:54:03.251Z,67.35
2022-11-05T08:56:29.650Z,66.77
2022-11-05T08:59:01.016Z,66.45
2022-11-05T09:01:27.583Z,65.94
2022-11-05T09:03:54.161Z,65.50
2022-11-05T09:06:20.705Z,66.91
2022-11-05T09:08:47.320Z,66.39
2022-11-05T09:11:13.966Z,67.30
2022-11-05T09:13:40.483Z,66.66
2022-11-05T09:16:13.359Z,65.38
2022-11-05T09:18:39.795Z,66.35
2022-11-05T09:21:06.211Z,66.93
2022-11-05T09:23:32.715Z,67.45
2022-11-05T09:25:59.121Z,68.01
2022-11-05T09:28:25.753Z,69.07
2022-11-05T09:30:52.870Z,68.42
2022-11-05T09:33:22.318Z,69.98
2022-11-05T09:35:49.043Z,70.05
2022-11-05T09:38:15.580Z,67.58
2022-11-05T09:41:03.178Z,66.82
2022-11-05T09:43:37.380Z,69.56
2022-11-05T09:46:13.960Z,68.83
2022-11-05T09:48:42.205Z,68.38
2022-11-05T09:51:17.978Z,67.70
2022-11-05T09:53:49.434Z,67.07
2022-11-05T09:56:29.132Z,66.40
2022-11-05T09:59:03.115Z,64.53
2022-11-05T10:01:32.249Z,63.57
2022-11-05T10:04:00.748Z,64.24
2022-11-05T10:06:28.030Z,62.61
2022-11-05T10:09:01.919Z,62.57
2022-11-05T10:11:31.707Z,64.09
2022-11-05T10:14:06.292Z,65.21
2022-11-05T10:16:35.021Z,65.38
2022-11-05T10:19:13.464Z,65.46
2022-11-05T10:22:06.074Z,64.64
2022-11-05T10:24:27.580Z,64.02
2022-11-05T10:26:54.504Z,62.80
2022-11-05T10:29:27.466Z,62.96
2022-11-05T10:31:55.432Z,63.86
2022-11-05T10:34:23.566Z,62.75
2022-11-05T10:36:49.892Z,64.80
2022-11-05T10:39:17.580Z,63.36
2022-11-05T10:42:02.742Z,65.52
2022-11-05T10:44:37.219Z,65.28
2022-11-05T10:47:32.366Z,63.32
2022-11-05T10:50:00.894Z,63.69
2022-11-05T10:52:35.319Z,63.16
2022-11-05T10:55:04.704Z,63.39
2022-11-05T10:57:33.118Z,62.99
2022-11-05T11:00:24.645Z,63.23
2022-11-05T11:02:59.118Z,62.46
2022-11-05T11:05:32.707Z,62.51
2022-11-05T11:08:11.324Z,61.50
2022-11-05T11:10:40.891Z,60.37
2022-11-05T11:13:17.769Z,61.74
2022-11-05T11:15:44.180Z,60.73
2022-11-05T11:18:33.367Z,61.04
2022-11-05T11:21:07.673Z,58.77
2022-11-05T11:23:37.335Z,56.83
2022-11-05T11:26:04.263Z,56.58
2022-11-05T11:28:33.339Z,58.51
2022-11-05T11:31:08.830Z,58.71
2022-11-05T11:33:36.094Z,56.85
2022-11-05T11:36:02.636Z,51.53
2022-11-05T11:38:30.181Z,50.60
2022-11-05T11:41:15.333Z,46.77
2022-11-05T11:43:42.198Z,43.54
2022-11-05T11:46:16.433Z,42.43
2022-11-05T11:48:47.549Z,41.37
2022-11-05T11:51:30.189Z,36.21
2022-11-05T11:53:57.880Z,34.10
2022-11-05T11:56:24.253Z,32.55
2022-11-05T11:58:51.746Z,33.66
2022-11-05T12:01:25.219Z,31.99
2022-11-05T12:03:55.177Z,35.85
2022-11-05T12:06:44.990Z,37.54
2022-11-05T12:09:21.316Z,42.09
2022-11-05T12:11:55.319Z,45.39
2022-11-05T12:14:46.113Z,48.02
2022-11-05T12:17:19.231Z,50.61
2022-11-05T12:19:52.076Z,52.54
2022-11-05T12:22:21.442Z,53.59
2022-11-05T12:24:55.385Z,54.27
2022-11-05T12:27:40.655Z,54.05
2022-11-05T12:30:17.971Z,54.12
2022-11-05T12:33:02.723Z,54.25
2022-11-05T12:35:35.952Z,54.58
2022-11-05T12:38:34.971Z,54.80
2022-11-05T12:41:23.248Z,54.46
2022-11-05T12:43:52.987Z,55.05
2022-11-05T12:46:26.375Z,54.54
2022-11-05T12:49:04.709Z,54.70
2022-11-05T12:51:31.115Z,56.20
2022-11-05T12:54:09.676Z,56.97
2022-11-05T12:56:41.898Z,57.21
2022-11-05T12:59:27.064Z,58.62
2022-11-05T13:01:56.355Z,59.13
2022-11-05T13:04:34.534Z,58.20
2022-11-05T13:07:03.994Z,58.29
2022-11-05T13:09:34.452Z,57.92
2022-11-05T13:12:03.959Z,58.10
2022-11-05T13:14:40.415Z,57.91
2022-11-05T13:17:13.518Z,57.70
2022-11-05T13:19:53.219Z,58.48
2022-11-05T13:22:33.238Z,58.01
2022-11-05T13:25:02.816Z,58.36
2022-11-05T13:27:48.695Z,57.76
2022-11-05T13:30:26.618Z,54.42
2022-11-05T13:33:04.179Z,49.65
2022-11-05T13:35:36.554Z,47.54
2022-11-05T13:38:24.731Z,49.39
2022-11-05T13:41:06.370Z,52.13
2022-11-05T13:43:48.462Z,52.74
2022-11-05T13:46:29.927Z,53.71
2022-11-05T13:49:05.408Z,53.62
2022-11-05T13:51:50.710Z,53.97
2022-11-05T13:54:38.224Z,54.45
2022-11-05T13:57:21.360Z,54.70
2022-11-05T13:59:47.666Z,54.83
2022-11-05T14:02:28.613Z,54.04
2022-11-05T14:05:01.016Z,53.33
2022-11-05T14:07:33.276Z,52.42
2022-11-05T14:10:18.618Z,53.17
2022-11-05T14:12:50.134Z,54.09
2022-11-05T14:15:22.541Z,54.75
2022-11-05T14:18:05.323Z,56.77
2022-11-05T14:20:31.796Z,57.28
2022-11-05T14:23:16.926Z,58.35
2022-11-05T14:25:43.578Z,59.85
2022-11-05T14:28:28.693Z,60.23
2022-11-05T14:30:55.213Z,60.59
2022-11-05T14:33:24.506Z,61.98
2022-11-05T14:35:51.539Z,61.39
2022-11-05T14:38:22.343Z,62.35
2022-11-05T14:40:49.624Z,63.05
2022-11-05T14:43:21.582Z,62.88
2022-11-05T14:46:00.495Z,62.54
2022-11-05T14:48:35.448Z,63.62
2022-11-05T14:51:02.144Z,63.40
2022-11-05T14:53:28.476Z,62.48
2022-11-05T14:56:14.951Z,61.17
2022-11-05T14:58:42.784Z,62.60
2022-11-05T15:01:09.280Z,64.78
2022-11-05T15:03:46.400Z,66.71
2022-11-05T15:06:31.117Z,67.62
2022-11-05T15:09:00.623Z,67.62
2022-11-05T15:11:33.163Z,67.59
2022-11-05T15:14:04.292Z,67.48
2022-11-05T15:16:33.253Z,67.09
2022-11-05T15:18:59.843Z,67.78
2022-11-05T15:21:28.159Z,67.89
2022-11-05T15:23:56.703Z,67.46
2022-11-05T15:26:30.361Z,67.91
2022-11-05T15:28:57.097Z,67.88
2022-11-05T15:31:29.303Z,67.59
2022-11-05T15:34:14.531Z,68.20
2022-11-05T15:36:46.397Z,68.09
2022-11-05T15:39:29.281Z,67.50
2022-11-05T15:41:56.650Z,67.48
2022-11-05T15:44:30.538Z,68.09
2022-11-05T15:47:07.089Z,67.91
2022-11-05T15:49:33.896Z,68.74
2022-11-05T15:52:00.341Z,68.38
2022-11-05T15:54:30.899Z,69.24
2022-11-05T15:56:59.392Z,69.17
2022-11-05T15:59:26.901Z,69.06
2022-11-05T16:01:56.349Z,69.15
2022-11-05T16:04:28.668Z,69.22
2022-11-05T16:06:57.142Z,69.83
2022-11-05T16:09:23.420Z,70.60
2022-11-05T16:11:53.216Z,70.53
2022-11-05T16:14:19.740Z,72.41
2022-11-05T16:16:46.397Z,72.63
2022-11-05T16:19:35.599Z,71.84
2022-11-05T16:22:06.345Z,72.23
2022-11-05T16:24:32.831Z,71.78
2022-11-05T16:27:02.968Z,72.53
2022-11-05T16:29:29.938Z,72.52
2022-11-05T16:31:57.134Z,72.45
2022-11-05T16:34:23.514Z,72.87
2022-11-05T16:36:53.499Z,74.08
2022-11-05T16:39:19.853Z,74.08
2022-11-05T16:41:48.068Z,74.29
2022-11-05T16:44:14.393Z,75.09
2022-11-05T16:46:42.254Z,75.62
2022-11-05T16:49:11.066Z,75.78
2022-11-05T16:51:37.759Z,76.35
2022-11-05T16:54:04.471Z,76.33
2022-11-05T16:56:31.147Z,75.90
2022-11-05T16:58:57.657Z,75.96
2022-11-05T17:01:25.351Z,75.27
2022-11-05T17:03:52.462Z,74.48
2022-11-05T17:06:19.739Z,73.77
2022-11-05T17:08:46.645Z,73.60
2022-11-05T17:11:15.079Z,73.56
2022-11-05T17:13:41.653Z,74.11
2022-11-05T17:16:12.428Z,74.20
2022-11-05T17:18:42.463Z,74.18
2022-11-05T17:21:09.459Z,74.69
2022-11-05T17:23:36.505Z,75.15
2022-11-05T17:26:12.813Z,74.94
2022-11-05T17:28:40.696Z,75.63
2022-11-05T17:31:08.384Z,75.65
2022-11-05T17:33:35.093Z,76.01
2022-11-05T17:36:06.382Z,76.28
2022-11-05T17:38:33.112Z,76.39
2022-11-05T17:40:59.757Z,77.38
2022-11-05T17:43:26.122Z,76.90
2022-11-05T17:45:53.053Z,76.61
2022-11-05T17:48:20.181Z,76.67
2022-11-05T17:50:47.978Z,76.59
2022-11-05T17:53:15.526Z,77.18
2022-11-05T17:55:43.031Z,76.75
2022-11-05T17:58:14.123Z,76.81
2022-11-05T18:00:41.160Z,77.27
2022-11-05T18:03:07.623Z,76.84
2022-11-05T18:05:34.491Z,76.81
2022-11-05T18:08:01.192Z,76.74
2022-11-05T18:10:27.536Z,76.99
2022-11-05T18:12:53.894Z,77.00
2022-11-05T18:15:20.286Z,76.72
2022-11-05T18:17:47.215Z,76.57
2022-11-05T18:20:18.955Z,76.48
2022-11-05T18:22:46.186Z,75.81
2022-11-05T18:25:13.219Z,75.38
2022-11-05T18:27:40.496Z,75.08
2022-11-05T18:30:07.206Z,75.25
2022-11-05T18:32:33.583Z,75.54
2022-11-05T18:34:59.936Z,75.50
2022-11-05T18:37:26.570Z,75.88
2022-11-05T18:39:53.145Z,76.45
2022-11-05T18:42:20.259Z,75.92
2022-11-05T18:44:46.833Z,76.38
2022-11-05T18:47:13.254Z,77.27
2022-11-05T18:49:39.683Z,77.28
2022-11-05T18:52:06.105Z,77.19
2022-11-05T18:54:35.463Z,77.93
2022-11-05T18:57:02.255Z,78.12
2022-11-05T18:59:38.589Z,78.86
2022-11-05T19:02:06.096Z,79.10
2022-11-05T19:04:32.818Z,79.23
2022-11-05T19:07:04.332Z,79.46
2022-11-05T19:09:31.404Z,79.53
2022-11-05T19:11:57.861Z,79.34
2022-11-05T19:14:24.292Z,80.53
2022-11-05T19:16:50.688Z,80.72
2022-11-05T19:19:17.107Z,80.52
2022-11-05T19:21:43.489Z,81.10
2022-11-05T19:24:09.967Z,81.24
2022-11-05T19:26:36.338Z,81.51
2022-11-05T19:29:03.687Z,81.65
2022-11-05T19:31:30.778Z,81.40
2022-11-05T19:33:57.325Z,81.31
2022-11-05T19:36:24.515Z,81.15
2022-11-05T19:39:10.983Z,80.97
2022-11-05T19:41:41.790Z,81.22
2022-11-05T19:44:33.630Z,81.84
2022-11-05T19:47:00.046Z,82.16
2022-11-05T19:49:28.131Z,81.86
2022-11-05T19:51:54.477Z,82.53
2022-11-05T19:54:20.818Z,82.87
2022-11-05T19:56:49.528Z,83.07
2022-11-05T19:59:15.920Z,83.33
2022-11-05T20:01:42.490Z,83.53
2022-11-05T20:04:09.916Z,83.11
2022-11-05T20:06:38.642Z,83.23
2022-11-05T20:09:20.999Z,84.05
2022-11-05T20:11:49.843Z,83.66
2022-11-05T20:14:16.285Z,83.39
2022-11-05T20:16:42.793Z,82.68
2022-11-05T20:19:10.698Z,82.62
2022-11-05T20:21:37.220Z,83.02
2022-11-05T20:24:07.246Z,82.40
2022-11-05T20:26:34.002Z,82.29
2022-11-05T20:29:13.214Z,82.72
2022-11-05T20:31:39.688Z,83.18
2022-11-05T20:34:06.198Z,83.17
2022-11-05T20:36:32.630Z,83.40
2022-11-05T20:38:59.170Z,83.52
2022-11-05T20:41:26.172Z,83.48
2022-11-05T20:43:52.849Z,83.52
2022-11-05T20:46:20.490Z,83.03
2022-11-05T20:48:46.924Z,82.88
2022-11-05T20:51:14.766Z,82.52
2022-11-05T20:53:41.552Z,82.55
2022-11-05T20:56:09.322Z,82.42
2022-11-05T20:58:36.662Z,82.17
2022-11-05T21:01:03.948Z,82.38
2022-11-05T21:03:30.432Z,81.80
2022-11-05T21:05:59.954Z,81.51
2022-11-05T21:08:30.131Z,81.18
2022-11-05T21:10:57.888Z,81.70
2022-11-05T21:13:25.038Z,81.40
2022-11-05T21:15:52.735Z,82.03
2022-11-05T21:18:20.956Z,81.82
2022-11-05T21:20:52.085Z,82.04
2022-11-05T21:23:21.888Z,81.83
2022-11-05T21:25:48.630Z,81.39
2022-11-05T21:28:15.950Z,82.13
2022-11-05T21:30:47.381Z,81.72
2022-11-05T21:33:15.261Z,81.47
2022-11-05T21:35:43.947Z,81.18
2022-11-05T21:38:14.091Z,81.22
2022-11-05T21:40:48.571Z,81.10
2022-11-05T21:43:15.351Z,81.27
2022-11-05T21:45:45.333Z,80.97
2022-11-05T21:48:12.416Z,81.45
2022-11-05T21:50:58.119Z,81.01
2022-11-05T21:53:46.627Z,80.90
2022-11-05T21:56:39.343Z,80.95
2022-11-05T21:59:24.484Z,81.35
2022-11-05T22:01:51.162Z,81.10
2022-11-05T22:04:17.657Z,80.89
2022-11-05T22:06:44.134Z,80.13
2022-11-05T22:09:10.560Z,80.43
2022-11-05T22:11:37.537Z,80.91
2022-11-05T22:14:04.136Z,80.52
2022-11-05T22:16:30.680Z,80.73
2022-11-05T22:18:58.027Z,80.72
2022-11-05T22:21:24.646Z,80.56
2022-11-05T22:23:51.698Z,81.59
2022-11-05T22:26:18.189Z,82.41
2022-11-05T22:28:44.736Z,81.84
2022-11-05T22:31:11.966Z,81.35
2022-11-05T22:33:38.451Z,81.85
2022-11-05T22:36:05.267Z,82.67
2022-11-05T22:38:32.166Z,83.06
2022-11-05T22:40:58.716Z,83.21
2022-11-05T22:43:25.221Z,83.76
2022-11-05T22:45:51.654Z,83.25
2022-11-05T22:48:18.177Z,83.83
2022-11-05T22:50:44.722Z,82.99
2022-11-05T22:53:11.225Z,82.95
2022-11-05T22:55:40.798Z,82.33
2022-11-05T22:58:07.250Z,82.11
